Time;durP1;ratioP1;P1;durP2;ratioP2;P2;SDS_P1;SDS_P2;PMS_P1;PMS_P2;Temp;Humidity;BMP_temperature;BMP_pressure;BME280_temperature;BME280_humidity;BME280_pressure;Samples;Min_cycle;Max_cycle;Signal;HPM_P1;HPM_P2
2023/12/14 00:00:31;;;;;;;1999.90;999.90;;;5.80;99.90;;;;;;5070421;28;20025;-78
2023/12/14 00:02:57;;;;;;;1999.90;999.90;;;5.80;99.90;;;;;;5072437;28;20035;-77
2023/12/14 00:05:23;;;;;;;1999.90;999.90;;;6.00;99.90;;;;;;5073142;28;20574;-81
2023/12/14 00:07:48;;;;;;;1999.90;999.90;;;6.00;99.90;;;;;;5074661;28;20028;-77
2023/12/14 00:10:14;;;;;;;1999.90;999.90;;;5.80;99.90;;;;;;5072318;28;20092;-79
2023/12/14 00:12:40;;;;;;;1999.90;999.90;;;5.90;99.90;;;;;;5068304;28;20063;-76
2023/12/14 00:15:06;;;;;;;1999.90;999.90;;;5.80;99.90;;;;;;5071519;28;20115;-83
2023/12/14 00:17:32;;;;;;;1999.90;999.90;;;5.80;99.90;;;;;;5068879;28;20545;-75
2023/12/14 00:19:57;;;;;;;1999.90;999.90;;;5.90;99.90;;;;;;5070999;28;20059;-78
2023/12/14 00:22:24;;;;;;;1999.90;999.90;;;5.80;99.90;;;;;;5070726;28;20028;-79
2023/12/14 00:24:50;;;;;;;1999.90;999.90;;;5.80;99.90;;;;;;5068353;28;20458;-81
2023/12/14 00:27:15;;;;;;;1999.90;999.90;;;5.90;99.90;;;;;;5072324;28;20039;-79
2023/12/14 00:29:41;;;;;;;1999.90;999.90;;;6.00;99.90;;;;;;5069139;28;20037;-78
2023/12/14 00:32:06;;;;;;;1999.90;999.90;;;5.90;99.90;;;;;;5066033;28;20034;-80
2023/12/14 00:34:32;;;;;;;1999.90;999.90;;;5.90;99.90;;;;;;5070749;28;20430;-78
2023/12/14 00:36:58;;;;;;;1999.90;999.90;;;6.00;99.90;;;;;;5073684;28;20433;-78
2023/12/14 00:39:23;;;;;;;1999.90;999.90;;;6.00;99.90;;;;;;5067556;28;20090;-79
2023/12/14 00:41:49;;;;;;;1999.90;999.90;;;5.90;99.90;;;;;;5069315;28;20072;-78
2023/12/14 00:44:14;;;;;;;1999.90;999.90;;;5.90;99.90;;;;;;5067352;28;20020;-78
2023/12/14 00:46:41;;;;;;;1999.90;999.90;;;5.80;99.90;;;;;;5070394;28;20049;-78
2023/12/14 00:49:07;;;;;;;1999.90;999.90;;;5.80;99.90;;;;;;5069020;28;20160;-77
2023/12/14 00:51:33;;;;;;;1999.90;999.90;;;5.80;99.90;;;;;;5068512;28;20032;-78
2023/12/14 00:53:58;;;;;;;1999.90;999.90;;;5.90;99.90;;;;;;5072566;28;20678;-76
2023/12/14 00:56:24;;;;;;;1999.90;999.90;;;5.80;99.90;;;;;;5067563;28;20483;-80
2023/12/14 00:58:49;;;;;;;1999.90;999.90;;;5.90;99.90;;;;;;5070852;28;20573;-76
2023/12/14 01:01:15;;;;;;;1999.90;999.90;;;5.90;99.90;;;;;;5068264;28;20025;-80
2023/12/14 01:03:41;;;;;;;1999.90;999.90;;;5.80;99.90;;;;;;5074705;28;20486;-78
2023/12/14 01:06:07;;;;;;;1999.90;999.90;;;5.90;99.90;;;;;;5065928;28;20044;-78
2023/12/14 01:08:32;;;;;;;1999.90;999.90;;;5.80;99.90;;;;;;5065944;28;20036;-79
2023/12/14 01:10:58;;;;;;;1999.90;999.90;;;5.90;99.90;;;;;;5066835;28;20048;-76
2023/12/14 01:13:24;;;;;;;1999.90;999.90;;;5.80;99.90;;;;;;5069795;28;20541;-78
2023/12/14 01:15:49;;;;;;;1999.90;999.90;;;5.90;99.90;;;;;;5067118;28;20747;-80
2023/12/14 01:18:15;;;;;;;1999.90;999.90;;;5.90;99.90;;;;;;5070593;28;20107;-76
2023/12/14 01:20:41;;;;;;;1999.90;999.90;;;5.80;99.90;;;;;;5069431;28;20067;-76
2023/12/14 01:23:09;;;;;;;1999.90;999.90;;;5.80;99.90;;;;;;5072057;28;20098;-76
2023/12/14 01:25:35;;;;;;;1999.90;999.90;;;5.90;99.90;;;;;;5050593;28;20745;-77
2023/12/14 01:28:00;;;;;;;1999.90;999.90;;;5.80;99.90;;;;;;5071907;28;20067;-78
2023/12/14 01:30:26;;;;;;;1999.90;999.90;;;5.90;99.90;;;;;;5065060;28;20056;-78
2023/12/14 01:32:52;;;;;;;1999.90;999.90;;;5.80;99.90;;;;;;5073026;28;20416;-79
2023/12/14 01:35:17;;;;;;;1999.90;999.90;;;5.80;99.90;;;;;;5052783;28;20039;-77
2023/12/14 01:37:43;;;;;;;1999.90;999.90;;;5.80;99.90;;;;;;5066184;28;20062;-78
2023/12/14 01:40:09;;;;;;;1999.90;999.90;;;5.80;99.90;;;;;;5071038;28;20033;-79
2023/12/14 01:42:34;;;;;;;1999.90;999.90;;;5.80;99.90;;;;;;5072883;28;20032;-79
2023/12/14 01:45:00;;;;;;;1999.90;999.90;;;5.90;99.90;;;;;;5070359;28;21010;-77
2023/12/14 01:47:26;;;;;;;1999.90;999.90;;;5.80;99.90;;;;;;5067146;28;20700;-79
2023/12/14 01:49:51;;;;;;;1999.90;999.90;;;5.80;99.90;;;;;;5074184;28;20115;-78
2023/12/14 01:52:17;;;;;;;1999.90;999.90;;;5.80;99.90;;;;;;5066568;28;20379;-79
2023/12/14 01:54:43;;;;;;;1999.90;999.90;;;5.80;99.90;;;;;;5072290;28;20056;-77
2023/12/14 01:57:08;;;;;;;1999.90;999.90;;;5.80;99.90;;;;;;5071993;28;20094;-76
2023/12/14 01:59:34;;;;;;;1999.90;999.90;;;5.80;99.90;;;;;;5074995;28;20118;-77
2023/12/14 02:02:01;;;;;;;1999.90;999.90;;;5.80;99.90;;;;;;5070961;28;20039;-77
2023/12/14 02:04:27;;;;;;;1999.90;999.90;;;5.80;99.90;;;;;;5075031;28;20035;-76
2023/12/14 02:06:52;;;;;;;1999.90;999.90;;;5.80;99.90;;;;;;5075779;28;20682;-77
2023/12/14 02:09:18;;;;;;;1999.90;999.90;;;5.80;99.90;;;;;;5069946;28;20102;-77
2023/12/14 02:11:44;;;;;;;1999.90;999.90;;;5.80;99.90;;;;;;5073066;28;20387;-78
2023/12/14 02:14:10;;;;;;;1999.90;999.90;;;5.80;99.90;;;;;;5073443;28;20036;-76
2023/12/14 02:16:39;;;;;;;1999.90;999.90;;;5.70;99.90;;;;;;5070746;28;20652;-77
2023/12/14 02:19:07;;;;;;;1999.90;999.90;;;5.70;99.90;;;;;;5071139;28;20541;-76
2023/12/14 02:21:33;;;;;;;1999.90;999.90;;;5.70;99.90;;;;;;5070817;28;20032;-78
2023/12/14 02:23:58;;;;;;;1999.90;999.90;;;5.70;99.90;;;;;;5074401;28;20566;-77
2023/12/14 02:26:24;;;;;;;1999.90;999.90;;;5.70;99.90;;;;;;5071688;28;20059;-77
2023/12/14 02:28:50;;;;;;;1999.90;999.90;;;5.70;99.90;;;;;;5072111;28;20075;-77
2023/12/14 02:31:17;;;;;;;1999.90;999.90;;;5.80;99.90;;;;;;5072880;28;20447;-76
2023/12/14 02:33:43;;;;;;;1999.90;999.90;;;5.80;99.90;;;;;;5069688;28;20104;-76
2023/12/14 02:36:08;;;;;;;1999.90;999.90;;;5.70;99.90;;;;;;5073046;28;20111;-77
2023/12/14 02:38:34;;;;;;;1999.90;999.90;;;5.70;99.90;;;;;;5068348;28;20063;-79
2023/12/14 02:41:00;;;;;;;1999.90;999.90;;;5.70;99.90;;;;;;5072639;28;20033;-78
2023/12/14 02:43:25;;;;;;;1999.90;999.90;;;5.80;99.90;;;;;;5070117;28;20077;-76
2023/12/14 02:45:51;;;;;;;1999.90;999.90;;;5.70;99.90;;;;;;5072698;28;20024;-76
2023/12/14 02:48:17;;;;;;;1999.90;999.90;;;5.70;99.90;;;;;;5071802;28;20028;-78
2023/12/14 02:50:42;;;;;;;1999.90;999.90;;;5.80;99.90;;;;;;5072206;28;20069;-77
2023/12/14 02:53:08;;;;;;;1999.90;999.90;;;5.80;99.90;;;;;;5068274;28;20052;-78
2023/12/14 02:55:34;;;;;;;1999.90;999.90;;;5.70;99.90;;;;;;5065209;28;20028;-77
2023/12/14 02:57:59;;;;;;;1999.90;999.90;;;5.70;99.90;;;;;;5105540;27;20040;-77
2023/12/14 03:00:25;;;;;;;1999.90;999.90;;;5.60;99.90;;;;;;5073241;28;20028;-78
2023/12/14 03:02:51;;;;;;;1999.90;999.90;;;5.60;99.90;;;;;;5071896;28;20028;-77
2023/12/14 03:05:17;;;;;;;1999.90;999.90;;;5.50;99.90;;;;;;5072295;28;20717;-77
2023/12/14 03:07:45;;;;;;;1999.90;999.90;;;5.40;99.90;;;;;;5072821;28;20557;-77
2023/12/14 03:10:11;;;;;;;1999.90;999.90;;;5.40;99.90;;;;;;5073512;28;20104;-77
2023/12/14 03:12:37;;;;;;;1999.90;999.90;;;5.40;99.90;;;;;;5073540;28;20108;-76
2023/12/14 03:15:02;;;;;;;1999.90;999.90;;;5.50;99.90;;;;;;5071706;28;20494;-76
2023/12/14 03:17:28;;;;;;;1999.90;999.90;;;5.40;99.90;;;;;;5075672;28;20530;-76
2023/12/14 03:19:54;;;;;;;1999.90;999.90;;;5.40;99.90;;;;;;5070725;28;20044;-76
2023/12/14 03:22:20;;;;;;;1999.90;999.90;;;5.40;99.90;;;;;;5078610;28;20032;-78
2023/12/14 03:24:45;;;;;;;1999.90;999.90;;;5.30;99.90;;;;;;5073739;28;20040;-78
2023/12/14 03:27:11;;;;;;;1999.90;999.90;;;5.30;99.90;;;;;;5072512;28;20039;-76
2023/12/14 03:29:37;;;;;;;1999.90;999.90;;;5.20;99.90;;;;;;5074900;28;20102;-75
2023/12/14 03:32:03;;;;;;;1999.90;999.90;;;5.30;99.90;;;;;;5071287;28;20036;-77
2023/12/14 03:34:28;;;;;;;1999.90;999.90;;;5.40;99.90;;;;;;5071037;28;20517;-77
2023/12/14 03:36:54;;;;;;;1999.90;999.90;;;5.40;99.90;;;;;;5073462;28;20032;-76
2023/12/14 03:39:20;;;;;;;1999.90;999.90;;;5.30;99.90;;;;;;5072493;28;20554;-76
2023/12/14 03:41:45;;;;;;;1999.90;999.90;;;5.30;99.90;;;;;;5074378;28;20422;-78
2023/12/14 03:44:11;;;;;;;1999.90;999.90;;;5.20;99.90;;;;;;5072083;28;20086;-77
2023/12/14 03:46:37;;;;;;;1999.90;999.90;;;5.20;99.90;;;;;;5069579;28;20024;-76
2023/12/14 03:49:03;;;;;;;1999.90;999.90;;;5.30;99.90;;;;;;5101374;27;20029;-76
2023/12/14 03:51:29;;;;;;;1999.90;999.90;;;5.30;99.90;;;;;;5069061;28;20384;-76
2023/12/14 03:53:55;;;;;;;1999.90;999.90;;;5.30;99.90;;;;;;5073966;28;20049;-79
2023/12/14 03:56:22;;;;;;;1999.90;999.90;;;5.20;99.90;;;;;;5073578;28;20085;-76
2023/12/14 03:58:47;;;;;;;1999.90;999.90;;;5.20;99.90;;;;;;5069868;28;20024;-76
2023/12/14 04:01:18;;;;;;;1999.90;999.90;;;5.10;99.90;;;;;;5072020;28;20035;-76
2023/12/14 04:03:44;;;;;;;1999.90;999.90;;;5.10;99.90;;;;;;5074048;28;20035;-76
2023/12/14 04:06:10;;;;;;;1999.90;999.90;;;5.00;99.90;;;;;;5070628;28;20040;-77
2023/12/14 04:08:36;;;;;;;1999.90;999.90;;;5.00;99.90;;;;;;5070627;28;20115;-78
2023/12/14 04:11:02;;;;;;;1999.90;999.90;;;4.90;99.90;;;;;;5074171;28;20131;-79
2023/12/14 04:13:27;;;;;;;1999.90;999.90;;;4.90;99.90;;;;;;5070857;28;20111;-79
2023/12/14 04:15:53;;;;;;;1999.90;999.90;;;4.90;99.90;;;;;;5070968;28;20045;-78
2023/12/14 04:18:18;;;;;;;1999.90;999.90;;;4.80;99.90;;;;;;5068238;28;20025;-79
2023/12/14 04:20:44;;;;;;;1999.90;999.90;;;4.80;99.90;;;;;;5068877;28;20021;-78
2023/12/14 04:23:10;;;;;;;1999.90;999.90;;;4.70;99.90;;;;;;5068255;28;20052;-78
2023/12/14 04:25:35;;;;;;;1999.90;999.90;;;4.70;99.90;;;;;;5072320;28;20517;-78
2023/12/14 04:28:01;;;;;;;1999.90;999.90;;;4.70;99.90;;;;;;5069844;28;20533;-78
2023/12/14 04:30:27;;;;;;;1999.90;999.90;;;4.60;99.90;;;;;;5076403;28;20054;-74
2023/12/14 04:32:53;;;;;;;1999.90;999.90;;;4.60;99.90;;;;;;5071619;28;20415;-77
2023/12/14 04:35:19;;;;;;;1999.90;999.90;;;4.60;99.90;;;;;;5070480;28;20028;-77
2023/12/14 04:37:44;;;;;;;1999.90;999.90;;;4.60;99.90;;;;;;5068195;28;20032;-76
2023/12/14 04:40:10;;;;;;;1999.90;999.90;;;4.70;99.90;;;;;;5074327;28;20522;-77
2023/12/14 04:42:36;;;;;;;1999.90;999.90;;;4.60;99.90;;;;;;5068115;28;20055;-76
2023/12/14 04:45:02;;;;;;;1999.90;999.90;;;4.50;99.90;;;;;;5071618;28;20103;-77
2023/12/14 04:47:28;;;;;;;1999.90;999.90;;;4.60;99.90;;;;;;5070309;28;20044;-78
2023/12/14 04:49:54;;;;;;;1999.90;999.90;;;4.60;99.90;;;;;;5101288;28;20052;-78
2023/12/14 04:52:19;;;;;;;1999.90;999.90;;;4.60;99.90;;;;;;5070303;28;20389;-76
2023/12/14 04:54:45;;;;;;;1999.90;999.90;;;4.60;99.90;;;;;;5070759;28;20116;-77
2023/12/14 04:57:11;;;;;;;1999.90;999.90;;;4.50;99.90;;;;;;5071124;28;20063;-76
2023/12/14 04:59:41;;;;;;;1999.90;999.90;;;4.50;99.90;;;;;;5082240;28;20028;-78
2023/12/14 05:02:07;;;;;;;1999.90;999.90;;;4.40;99.90;;;;;;5070030;28;20533;-76
2023/12/14 05:04:32;;;;;;;1999.90;999.90;;;4.50;99.90;;;;;;5070149;28;20068;-76
2023/12/14 05:06:58;;;;;;;1999.90;999.90;;;4.40;99.90;;;;;;5068679;28;20036;-77
2023/12/14 05:09:23;;;;;;;1999.90;999.90;;;4.40;99.90;;;;;;5070227;28;20036;-76
2023/12/14 05:11:49;;;;;;;1999.90;999.90;;;4.30;99.90;;;;;;5071117;28;20064;-77
2023/12/14 05:14:15;;;;;;;1999.90;999.90;;;4.30;99.90;;;;;;5072482;28;20033;-77
2023/12/14 05:16:40;;;;;;;1999.90;999.90;;;4.30;99.90;;;;;;5072572;28;20470;-76
2023/12/14 05:19:06;;;;;;;1999.90;999.90;;;4.20;99.90;;;;;;5068930;28;20025;-78
2023/12/14 05:21:32;;;;;;;1999.90;999.90;;;4.30;99.90;;;;;;5067195;28;20334;-77
2023/12/14 05:23:57;;;;;;;1999.90;999.90;;;4.30;99.90;;;;;;5070559;28;20021;-79
2023/12/14 05:26:23;;;;;;;1999.90;999.90;;;4.30;99.90;;;;;;5064351;28;20036;-78
2023/12/14 05:28:49;;;;;;;1999.90;999.90;;;4.30;99.90;;;;;;5064367;28;20028;-78
2023/12/14 05:31:14;;;;;;;1999.90;999.90;;;4.30;99.90;;;;;;5068577;28;20043;-77
2023/12/14 05:33:40;;;;;;;1999.90;999.90;;;4.30;99.90;;;;;;5073629;28;20051;-77
2023/12/14 05:36:10;;;;;;;1999.90;999.90;;;4.30;99.90;;;;;;5070536;28;20093;-79
2023/12/14 05:38:38;;;;;;;1999.90;999.90;;;4.30;99.90;;;;;;5076604;28;20032;-78
2023/12/14 05:41:04;;;;;;;1999.90;999.90;;;4.30;99.90;;;;;;5072422;28;20451;-77
2023/12/14 05:43:29;;;;;;;1999.90;999.90;;;4.30;99.90;;;;;;5072959;28;20031;-78
2023/12/14 05:45:55;;;;;;;1999.90;999.90;;;4.30;99.90;;;;;;5069157;28;20037;-77
2023/12/14 05:48:20;;;;;;;1999.90;999.90;;;4.30;99.90;;;;;;5076643;28;20063;-79
2023/12/14 05:50:46;;;;;;;1999.90;999.90;;;4.30;99.90;;;;;;5071794;28;20043;-79
2023/12/14 05:53:12;;;;;;;1999.90;999.90;;;4.30;99.90;;;;;;5069309;28;20059;-78
2023/12/14 05:55:39;;;;;;;1999.90;999.90;;;4.20;99.90;;;;;;5071025;28;20064;-79
2023/12/14 05:58:05;;;;;;;1999.90;999.90;;;4.30;99.90;;;;;;5073251;28;20025;-78
2023/12/14 06:00:33;;;;;;;1999.90;999.90;;;4.30;99.90;;;;;;5069204;28;20090;-79
2023/12/14 06:02:58;;;;;;;1999.90;999.90;;;4.30;99.90;;;;;;5065295;28;20021;-79
2023/12/14 06:05:24;;;;;;;1999.90;999.90;;;4.30;99.90;;;;;;5070695;28;20025;-79
2023/12/14 06:07:50;;;;;;;1999.90;999.90;;;4.30;99.90;;;;;;5073316;28;20115;-77
2023/12/14 06:10:15;;;;;;;1999.90;999.90;;;4.30;99.90;;;;;;5071390;28;20037;-76
2023/12/14 06:12:41;;;;;;;1999.90;999.90;;;4.40;99.90;;;;;;5074358;28;20040;-77
2023/12/14 06:15:10;;;;;;;1999.90;999.90;;;4.40;99.90;;;;;;5073290;28;20034;-77
2023/12/14 06:17:38;;;;;;;1999.90;999.90;;;4.50;99.90;;;;;;5069632;28;20115;-80
2023/12/14 06:20:06;;;;;;;1999.90;999.90;;;4.50;99.90;;;;;;5074906;28;20113;-80
2023/12/14 06:22:32;;;;;;;1999.90;999.90;;;4.40;99.90;;;;;;5076849;28;20115;-76
2023/12/14 06:24:58;;;;;;;1999.90;999.90;;;4.30;99.90;;;;;;5069274;28;20068;-77
2023/12/14 06:27:26;;;;;;;1999.90;999.90;;;4.30;99.90;;;;;;5070416;28;20528;-77
2023/12/14 06:29:52;;;;;;;1999.90;999.90;;;4.30;99.90;;;;;;5069460;28;20062;-84
2023/12/14 06:32:18;;;;;;;1999.90;999.90;;;4.30;99.90;;;;;;5069924;28;20040;-85
2023/12/14 06:34:43;;;;;;;1999.90;999.90;;;4.30;99.90;;;;;;5066178;28;20044;-84
2023/12/14 06:37:10;;;;;;;1999.90;999.90;;;4.40;99.90;;;;;;5066782;28;20040;-85
2023/12/14 06:39:36;;;;;;;1999.90;999.90;;;4.30;99.90;;;;;;5072967;28;20051;-86
2023/12/14 06:42:01;;;;;;;1999.90;999.90;;;4.30;99.90;;;;;;5064075;28;20475;-87
2023/12/14 06:44:28;;;;;;;1999.90;999.90;;;4.30;99.90;;;;;;5071505;28;20133;-84
2023/12/14 06:46:54;;;;;;;1999.90;999.90;;;4.30;99.90;;;;;;5100874;27;20036;-87
2023/12/14 06:49:21;;;;;;;1999.90;999.90;;;4.30;99.90;;;;;;5066642;28;20021;-84
2023/12/14 06:51:46;;;;;;;1999.90;999.90;;;4.40;99.90;;;;;;5075439;28;20019;-85
2023/12/14 06:54:12;;;;;;;1999.90;999.90;;;4.60;99.90;;;;;;5067887;28;20052;-85
2023/12/14 06:56:38;;;;;;;1999.90;999.90;;;5.10;99.90;;;;;;5069766;28;20080;-87
2023/12/14 06:59:03;;;;;;;1999.90;999.90;;;5.70;99.90;;;;;;5069953;28;20040;-86
2023/12/14 07:01:29;;;;;;;1999.90;999.90;;;5.60;99.90;;;;;;5068178;28;20047;-88
2023/12/14 07:03:54;;;;;;;1999.90;999.90;;;5.60;99.90;;;;;;5071310;28;20123;-89
2023/12/14 07:06:21;;;;;;;1999.90;999.90;;;5.60;99.90;;;;;;5074006;28;20040;-87
2023/12/14 07:08:47;;;;;;;1999.90;999.90;;;5.70;99.90;;;;;;5067217;28;20044;-87
2023/12/14 07:11:13;;;;;;;1999.90;999.90;;;5.70;99.90;;;;;;5075256;28;20037;-88
2023/12/14 07:13:39;;;;;;;1999.90;999.90;;;5.60;99.90;;;;;;5069111;28;20024;-87
2023/12/14 07:16:10;;;;;;;1999.90;999.90;;;5.70;99.90;;;;;;5069930;28;20032;-88
2023/12/14 07:18:42;;;;;;;1999.90;999.90;;;5.70;99.90;;;;;;5076890;28;20542;-86
2023/12/14 07:21:08;;;;;;;1999.90;999.90;;;5.70;99.90;;;;;;5058212;28;20029;-80
2023/12/14 07:23:35;;;;;;;1999.90;999.90;;;5.70;99.90;;;;;;5064670;28;20490;-79
2023/12/14 07:26:01;;;;;;;1999.90;999.90;;;5.70;99.90;;;;;;5071626;28;20032;-81
2023/12/14 07:28:27;;;;;;;1999.90;999.90;;;5.70;99.90;;;;;;5070510;28;20024;-79
2023/12/14 07:30:53;;;;;;;1999.90;999.90;;;5.80;99.90;;;;;;5070595;28;20401;-79
2023/12/14 07:33:19;;;;;;;1999.90;999.90;;;5.80;99.90;;;;;;5072737;28;20040;-80
2023/12/14 07:35:45;;;;;;;1999.90;999.90;;;5.70;99.90;;;;;;5068274;28;20494;-78
2023/12/14 07:38:11;;;;;;;1999.90;999.90;;;5.80;99.90;;;;;;5073538;28;20025;-79
2023/12/14 07:40:38;;;;;;;1999.90;999.90;;;6.30;99.90;;;;;;5069237;28;20505;-78
2023/12/14 07:43:04;;;;;;;1999.90;999.90;;;6.20;99.90;;;;;;5070346;28;20029;-83
2023/12/14 07:45:30;;;;;;;1999.90;999.90;;;6.40;99.90;;;;;;5070726;28;20031;-80
2023/12/14 07:47:55;;;;;;;1999.90;999.90;;;6.30;99.90;;;;;;5058083;28;20071;-81
2023/12/14 07:50:21;;;;;;;1999.90;999.90;;;6.10;99.90;;;;;;5104618;27;20036;-81
2023/12/14 07:52:47;;;;;;;1999.90;999.90;;;6.00;99.90;;;;;;5069382;28;20518;-80
2023/12/14 07:55:17;;;;;;;1999.90;999.90;;;6.00;99.90;;;;;;5070730;28;20032;-81
2023/12/14 07:57:43;;;;;;;1999.90;999.90;;;6.40;99.90;;;;;;5057471;28;20513;-78
2023/12/14 08:00:10;;;;;;;1999.90;999.90;;;6.50;99.90;;;;;;5070347;28;20060;-79
2023/12/14 08:02:35;;;;;;;1999.90;999.90;;;6.50;99.90;;;;;;5073191;28;20020;-80
2023/12/14 08:05:01;;;;;;;1999.90;999.90;;;6.60;99.90;;;;;;5070909;28;20044;-80
2023/12/14 08:07:29;;;;;;;1999.90;999.90;;;6.50;99.90;;;;;;5071815;28;20478;-80
2023/12/14 08:09:56;;;;;;;1999.90;999.90;;;6.60;99.90;;;;;;5072665;28;20044;-83
2023/12/14 08:12:25;;;;;;;1999.90;999.90;;;6.80;99.90;;;;;;5073025;28;20063;-84
2023/12/14 08:14:51;;;;;;;1999.90;999.90;;;6.80;99.90;;;;;;5071288;28;20122;-82
2023/12/14 08:17:17;;;;;;;1999.90;999.90;;;6.80;99.90;;;;;;5067342;28;21366;-79
2023/12/14 08:19:43;;;;;;;1999.90;999.90;;;6.70;99.90;;;;;;5052987;28;20035;-82
2023/12/14 08:22:12;;;;;;;1999.90;999.90;;;6.70;99.90;;;;;;5068140;28;20029;-81
2023/12/14 08:24:38;;;;;;;1999.90;999.90;;;6.80;99.90;;;;;;5069852;28;20406;-82
2023/12/14 08:27:04;;;;;;;1999.90;999.90;;;6.80;99.90;;;;;;5066841;28;20064;-81
2023/12/14 08:29:30;;;;;;;1999.90;999.90;;;6.90;99.90;;;;;;5066450;28;20439;-79
2023/12/14 08:31:57;;;;;;;1999.90;999.90;;;6.70;99.90;;;;;;5067294;28;20063;-79
2023/12/14 08:34:27;;;;;;;1999.90;999.90;;;6.40;99.90;;;;;;5069296;28;20037;-79
2023/12/14 08:36:52;;;;;;;1999.90;999.90;;;6.30;99.90;;;;;;5049966;28;20024;-80
2023/12/14 08:39:18;;;;;;;1999.90;999.90;;;6.00;99.90;;;;;;5065205;28;20044;-80
2023/12/14 08:41:46;;;;;;;1999.90;999.90;;;6.10;99.90;;;;;;5066358;28;20727;-79
2023/12/14 08:44:13;;;;;;;1999.90;999.90;;;6.00;99.90;;;;;;5099269;28;20486;-79
2023/12/14 08:46:43;;;;;;;1999.90;999.90;;;6.20;99.90;;;;;;5070408;28;20024;-80
2023/12/14 08:49:09;;;;;;;1999.90;999.90;;;6.30;99.90;;;;;;5064478;28;20146;-81
2023/12/14 08:51:35;;;;;;;1999.90;999.90;;;6.30;99.90;;;;;;5066726;28;20032;-80
2023/12/14 08:54:01;;;;;;;1999.90;999.90;;;6.30;99.90;;;;;;5065743;28;20063;-78
2023/12/14 08:56:27;;;;;;;1999.90;999.90;;;6.40;99.90;;;;;;5071216;28;20036;-78
2023/12/14 08:58:52;;;;;;;1999.90;999.90;;;6.40;99.90;;;;;;5063881;28;20600;-79
2023/12/14 09:01:22;;;;;;;1999.90;999.90;;;6.40;99.90;;;;;;5070459;28;20032;-79
2023/12/14 09:03:49;;;;;;;1999.90;999.90;;;6.50;99.90;;;;;;5067365;28;20075;-78
2023/12/14 09:06:16;;;;;;;1999.90;999.90;;;6.40;99.90;;;;;;5073738;28;20032;-80
2023/12/14 09:08:43;;;;;;;1999.90;999.90;;;6.50;99.90;;;;;;5070278;28;20085;-80
2023/12/14 09:11:08;;;;;;;1999.90;999.90;;;6.50;99.90;;;;;;5073869;28;20724;-78
2023/12/14 09:13:34;;;;;;;1999.90;999.90;;;6.40;99.90;;;;;;5061943;28;20031;-78
2023/12/14 09:16:01;;;;;;;1999.90;999.90;;;6.50;99.90;;;;;;5072215;28;20052;-79
2023/12/14 09:18:27;;;;;;;1999.90;999.90;;;6.60;99.90;;;;;;5074548;28;20032;-80
2023/12/14 09:20:52;;;;;;;1999.90;999.90;;;6.60;99.90;;;;;;5071462;28;20490;-81
2023/12/14 09:23:21;;;;;;;1999.90;999.90;;;6.60;99.90;;;;;;5076027;28;20113;-84
2023/12/14 09:25:47;;;;;;;1999.90;999.90;;;6.60;99.90;;;;;;5071834;28;20082;-82
2023/12/14 09:28:13;;;;;;;1999.90;999.90;;;6.70;99.90;;;;;;5075711;28;20060;-80
2023/12/14 09:30:39;;;;;;;1999.90;999.90;;;6.70;99.90;;;;;;5072526;28;20029;-80
2023/12/14 09:33:05;;;;;;;1999.90;999.90;;;6.90;99.90;;;;;;5089529;28;20028;-82
2023/12/14 09:35:31;;;;;;;1999.90;999.90;;;7.00;99.90;;;;;;5066905;28;20032;-82
2023/12/14 09:37:57;;;;;;;1999.90;999.90;;;6.90;99.90;;;;;;5074895;28;20498;-79
2023/12/14 09:40:23;;;;;;;1999.90;999.90;;;7.00;99.90;;;;;;5052020;28;20036;-80
2023/12/14 09:42:49;;;;;;;1999.90;999.90;;;7.00;99.90;;;;;;5066833;28;20083;-82
2023/12/14 09:45:17;;;;;;;1999.90;999.90;;;6.90;99.90;;;;;;5073391;28;20032;-83
2023/12/14 09:47:46;;;;;;;1999.90;999.90;;;7.10;99.90;;;;;;5069000;28;20532;-82
2023/12/14 09:50:14;;;;;;;1999.90;999.90;;;7.00;99.90;;;;;;5066239;28;20445;-79
2023/12/14 09:52:45;;;;;;;1999.90;999.90;;;6.80;99.90;;;;;;5071141;28;20028;-82
2023/12/14 09:55:11;;;;;;;1999.90;999.90;;;7.10;99.90;;;;;;5073628;28;20043;-82
2023/12/14 09:57:36;;;;;;;1999.90;999.90;;;7.20;99.90;;;;;;5075088;28;20077;-86
2023/12/14 10:00:05;;;;;;;1999.90;999.90;;;7.10;99.90;;;;;;5072498;28;20031;-75
2023/12/14 10:02:30;;;;;;;1999.90;999.90;;;6.90;99.90;;;;;;5068429;28;20024;-75
2023/12/14 10:04:56;;;;;;;1999.90;999.90;;;7.00;99.90;;;;;;5073779;28;20039;-76
2023/12/14 10:07:23;;;;;;;1999.90;999.90;;;7.10;99.90;;;;;;5072542;28;20092;-75
2023/12/14 10:09:49;;;;;;;1999.90;999.90;;;7.20;99.90;;;;;;5075802;28;20445;-75
2023/12/14 10:12:15;;;;;;;1999.90;999.90;;;7.20;99.90;;;;;;5072363;28;21418;-75
2023/12/14 10:14:41;;;;;;;1999.90;999.90;;;7.30;99.90;;;;;;5068486;28;20073;-75
2023/12/14 10:17:21;;;;;;;1999.90;999.90;;;7.30;99.90;;;;;;5069416;28;20033;-75
2023/12/14 10:19:49;;;;;;;1999.90;999.90;;;7.20;99.90;;;;;;5071539;28;20480;-75
2023/12/14 10:22:17;;;;;;;1999.90;999.90;;;7.10;99.90;;;;;;5071284;28;20047;-75
2023/12/14 10:24:47;;;;;;;1999.90;999.90;;;7.10;99.90;;;;;;5071862;28;20032;-75
2023/12/14 10:27:15;;;;;;;1999.90;999.90;;;7.00;99.90;;;;;;5073262;28;20032;-75
2023/12/14 10:29:41;;;;;;;1999.90;999.90;;;6.90;99.90;;;;;;5071144;28;20818;-76
2023/12/14 10:32:08;;;;;;;1999.90;999.90;;;7.10;99.90;;;;;;5070451;28;20376;-76
2023/12/14 10:34:41;;;;;;;1999.90;999.90;;;7.00;99.90;;;;;;5070143;28;20447;-75
2023/12/14 10:37:07;;;;;;;1999.90;999.90;;;7.10;99.90;;;;;;5072304;28;20039;-77
2023/12/14 10:39:35;;;;;;;1999.90;999.90;;;7.10;99.90;;;;;;5067997;28;20056;-75
2023/12/14 10:42:04;;;;;;;1999.90;999.90;;;7.20;99.90;;;;;;5075597;28;20036;-80
2023/12/14 10:44:34;;;;;;;1999.90;999.90;;;7.40;99.90;;;;;;5069161;28;20103;-81
2023/12/14 10:47:00;;;;;;;1999.90;999.90;;;7.30;99.90;;;;;;5068770;28;20024;-82
2023/12/14 10:49:26;;;;;;;1999.90;999.90;;;7.20;99.90;;;;;;5070693;28;20101;-83
2023/12/14 10:51:55;;;;;;;1999.90;999.90;;;7.20;99.90;;;;;;5075270;28;20722;-82
2023/12/14 10:54:23;;;;;;;1999.90;999.90;;;7.20;99.90;;;;;;5078572;28;20049;-81
2023/12/14 10:56:48;;;;;;;1999.90;999.90;;;7.30;99.90;;;;;;5070457;28;20028;-85
2023/12/14 10:59:18;;;;;;;1999.90;999.90;;;7.30;99.90;;;;;;5073713;28;20047;-82
2023/12/14 11:01:51;;;;;;;1999.90;999.90;;;7.40;99.90;;;;;;5068823;28;20078;-78
2023/12/14 11:04:18;;;;;;;1999.90;999.90;;;7.50;99.90;;;;;;5075166;28;20025;-82
2023/12/14 11:06:47;;;;;;;1999.90;999.90;;;7.80;99.90;;;;;;5070846;28;20056;-80
2023/12/14 11:09:18;;;;;;;1999.90;999.90;;;7.80;99.90;;;;;;5056159;28;20421;-79
2023/12/14 11:11:53;;;;;;;1999.90;999.90;;;7.80;99.90;;;;;;5068947;28;20368;-81
2023/12/14 11:14:20;;;;;;;1999.90;999.90;;;7.70;99.90;;;;;;5073057;28;20529;-81
2023/12/14 11:16:48;;;;;;;1999.90;999.90;;;7.80;99.90;;;;;;5071359;28;20351;-82
2023/12/14 11:19:23;;;;;;;1999.90;999.90;;;7.80;99.90;;;;;;5071549;28;20016;-81
2023/12/14 11:22:27;;;;;;;1999.90;999.90;;;7.80;99.90;;;;;;5073336;28;20098;-79
2023/12/14 11:24:54;;;;;;;1999.90;999.90;;;8.00;99.90;;;;;;5050911;28;20036;-82
2023/12/14 11:27:26;;;;;;;1999.90;999.90;;;7.80;99.90;;;;;;5079045;28;20394;-83
2023/12/14 11:29:53;;;;;;;1999.90;999.90;;;7.90;99.90;;;;;;5068063;28;20028;-81
2023/12/14 11:32:19;;;;;;;1999.90;999.90;;;7.60;99.90;;;;;;5072516;28;20039;-82
2023/12/14 11:34:47;;;;;;;1999.90;999.90;;;7.70;99.90;;;;;;5074537;28;20397;-81
2023/12/14 11:37:13;;;;;;;1999.90;999.90;;;7.90;99.90;;;;;;5072796;28;20060;-78
2023/12/14 11:39:40;;;;;;;1999.90;999.90;;;7.80;99.90;;;;;;5069363;28;20029;-78
2023/12/14 11:42:08;;;;;;;1999.90;999.90;;;7.80;99.90;;;;;;5067580;28;20025;-75
2023/12/14 11:44:35;;;;;;;1999.90;999.90;;;7.60;99.90;;;;;;5066470;28;20498;-76
2023/12/14 11:47:01;;;;;;;1999.90;999.90;;;7.80;99.90;;;;;;5062133;28;20063;-75
2023/12/14 11:49:33;;;;;;;1999.90;999.90;;;7.70;99.90;;;;;;5067154;28;20395;-76
2023/12/14 11:52:04;;;;;;;1999.90;999.90;;;7.50;99.90;;;;;;5062197;28;20126;-76
2023/12/14 11:54:30;;;;;;;1999.90;999.90;;;7.50;99.90;;;;;;5063808;28;20053;-75
2023/12/14 11:56:55;;;;;;;1999.90;999.90;;;7.70;99.90;;;;;;5063589;28;20115;-76
2023/12/14 11:59:21;;;;;;;1999.90;999.90;;;7.60;99.90;;;;;;5063156;28;20017;-75
2023/12/14 12:02:01;;;;;;;1999.90;999.90;;;7.60;99.90;;;;;;5075511;28;20386;-74
2023/12/14 12:04:27;;;;;;;1999.90;999.90;;;7.70;99.90;;;;;;5062545;28;20039;-74